sensor_id;sensor_type;location;lat;lon;timestamp;temperature;humidity
24011;DHT22;12217;50.792;4.372;2023-05-07T00:01:56;18.80;99.90
24011;DHT22;12217;50.792;4.372;2023-05-07T00:04:21;18.80;99.90
24011;DHT22;12217;50.792;4.372;2023-05-07T00:06:47;18.70;99.90
24011;DHT22;12217;50.792;4.372;2023-05-07T00:09:13;18.70;99.90
24011;DHT22;12217;50.792;4.372;2023-05-07T00:11:39;18.70;99.90
24011;DHT22;12217;50.792;4.372;2023-05-07T00:14:05;18.80;99.90
24011;DHT22;12217;50.792;4.372;2023-05-07T00:16:32;18.80;99.90
24011;DHT22;12217;50.792;4.372;2023-05-07T00:18:58;18.80;99.90
24011;DHT22;12217;50.792;4.372;2023-05-07T00:21:24;18.70;99.90
24011;DHT22;12217;50.792;4.372;2023-05-07T00:23:53;18.70;99.90
24011;DHT22;12217;50.792;4.372;2023-05-07T00:26:19;18.70;99.90
24011;DHT22;12217;50.792;4.372;2023-05-07T00:28:46;18.80;99.90
24011;DHT22;12217;50.792;4.372;2023-05-07T00:31:11;18.80;99.90
24011;DHT22;12217;50.792;4.372;2023-05-07T00:33:38;18.80;99.90
24011;DHT22;12217;50.792;4.372;2023-05-07T00:36:04;18.90;99.90
24011;DHT22;12217;50.792;4.372;2023-05-07T00:38:30;18.80;99.90
24011;DHT22;12217;50.792;4.372;2023-05-07T00:40:55;18.80;99.90
24011;DHT22;12217;50.792;4.372;2023-05-07T00:43:21;18.80;99.90
24011;DHT22;12217;50.792;4.372;2023-05-07T00:45:47;18.70;99.90
24011;DHT22;12217;50.792;4.372;2023-05-07T00:48:12;18.70;99.90
24011;DHT22;12217;50.792;4.372;2023-05-07T00:50:38;18.70;99.90
24011;DHT22;12217;50.792;4.372;2023-05-07T00:53:04;18.70;99.90
24011;DHT22;12217;50.792;4.372;2023-05-07T00:55:30;18.80;99.90
24011;DHT22;12217;50.792;4.372;2023-05-07T00:57:56;18.80;99.90
24011;DHT22;12217;50.792;4.372;2023-05-07T01:00:21;18.80;99.90
24011;DHT22;12217;50.792;4.372;2023-05-07T01:02:47;18.80;99.90
24011;DHT22;12217;50.792;4.372;2023-05-07T01:05:15;18.70;99.90
24011;DHT22;12217;50.792;4.372;2023-05-07T01:07:43;18.80;99.90
24011;DHT22;12217;50.792;4.372;2023-05-07T01:10:09;18.80;99.90
24011;DHT22;12217;50.792;4.372;2023-05-07T01:12:37;18.80;99.90
24011;DHT22;12217;50.792;4.372;2023-05-07T01:15:04;18.70;99.90
24011;DHT22;12217;50.792;4.372;2023-05-07T01:17:38;18.70;99.90
24011;DHT22;12217;50.792;4.372;2023-05-07T01:20:05;18.80;99.90
24011;DHT22;12217;50.792;4.372;2023-05-07T01:22:34;18.80;99.90
24011;DHT22;12217;50.792;4.372;2023-05-07T01:25:02;18.80;99.90
24011;DHT22;12217;50.792;4.372;2023-05-07T01:27:28;18.70;99.90
24011;DHT22;12217;50.792;4.372;2023-05-07T01:29:54;18.70;99.90
24011;DHT22;12217;50.792;4.372;2023-05-07T01:32:27;18.60;99.90
24011;DHT22;12217;50.792;4.372;2023-05-07T01:34:55;18.60;99.90
24011;DHT22;12217;50.792;4.372;2023-05-07T01:37:23;18.60;99.90
24011;DHT22;12217;50.792;4.372;2023-05-07T01:39:50;18.60;99.90
24011;DHT22;12217;50.792;4.372;2023-05-07T01:42:16;18.50;99.90
24011;DHT22;12217;50.792;4.372;2023-05-07T01:44:41;18.50;99.90
24011;DHT22;12217;50.792;4.372;2023-05-07T01:47:07;18.40;99.90
24011;DHT22;12217;50.792;4.372;2023-05-07T01:49:34;18.50;99.90
24011;DHT22;12217;50.792;4.372;2023-05-07T01:52:00;18.50;99.90
24011;DHT22;12217;50.792;4.372;2023-05-07T01:54:27;18.50;99.90
24011;DHT22;12217;50.792;4.372;2023-05-07T01:56:56;18.40;99.90
24011;DHT22;12217;50.792;4.372;2023-05-07T01:59:22;18.40;99.90
24011;DHT22;12217;50.792;4.372;2023-05-07T02:01:48;18.40;99.90
24011;DHT22;12217;50.792;4.372;2023-05-07T02:04:14;18.50;99.90
24011;DHT22;12217;50.792;4.372;2023-05-07T02:06:40;18.40;99.90
24011;DHT22;12217;50.792;4.372;2023-05-07T02:09:05;18.40;99.90
24011;DHT22;12217;50.792;4.372;2023-05-07T02:11:31;18.40;99.90
24011;DHT22;12217;50.792;4.372;2023-05-07T02:13:56;18.40;99.90
24011;DHT22;12217;50.792;4.372;2023-05-07T02:16:22;18.40;99.90
24011;DHT22;12217;50.792;4.372;2023-05-07T02:18:49;18.40;99.90
24011;DHT22;12217;50.792;4.372;2023-05-07T02:21:14;18.40;99.90
24011;DHT22;12217;50.792;4.372;2023-05-07T02:23:40;18.40;99.90
24011;DHT22;12217;50.792;4.372;2023-05-07T02:26:06;18.40;99.90
24011;DHT22;12217;50.792;4.372;2023-05-07T02:28:31;18.30;99.90
24011;DHT22;12217;50.792;4.372;2023-05-07T02:30:57;18.20;99.90
24011;DHT22;12217;50.792;4.372;2023-05-07T02:33:24;18.20;99.90
24011;DHT22;12217;50.792;4.372;2023-05-07T02:35:50;18.20;99.90
24011;DHT22;12217;50.792;4.372;2023-05-07T02:38:17;18.10;99.90
24011;DHT22;12217;50.792;4.372;2023-05-07T02:40:43;18.10;99.90
24011;DHT22;12217;50.792;4.372;2023-05-07T02:43:09;18.20;99.90
24011;DHT22;12217;50.792;4.372;2023-05-07T02:45:35;18.20;99.90
24011;DHT22;12217;50.792;4.372;2023-05-07T02:48:03;18.10;99.90
24011;DHT22;12217;50.792;4.372;2023-05-07T02:50:29;18.20;99.90
24011;DHT22;12217;50.792;4.372;2023-05-07T02:52:55;18.10;99.90
24011;DHT22;12217;50.792;4.372;2023-05-07T02:55:21;18.10;99.90
24011;DHT22;12217;50.792;4.372;2023-05-07T02:57:46;18.10;99.90
24011;DHT22;12217;50.792;4.372;2023-05-07T03:00:22;18.00;99.90
24011;DHT22;12217;50.792;4.372;2023-05-07T03:02:47;18.00;99.90
24011;DHT22;12217;50.792;4.372;2023-05-07T03:05:13;18.00;99.90
24011;DHT22;12217;50.792;4.372;2023-05-07T03:07:39;18.00;99.90
24011;DHT22;12217;50.792;4.372;2023-05-07T03:10:06;18.00;99.90
24011;DHT22;12217;50.792;4.372;2023-05-07T03:12:32;18.00;99.90
24011;DHT22;12217;50.792;4.372;2023-05-07T03:14:57;18.00;99.90
24011;DHT22;12217;50.792;4.372;2023-05-07T03:17:23;18.00;99.90
24011;DHT22;12217;50.792;4.372;2023-05-07T03:19:48;18.00;99.90
24011;DHT22;12217;50.792;4.372;2023-05-07T03:22:14;17.90;99.90
24011;DHT22;12217;50.792;4.372;2023-05-07T03:24:40;18.00;99.90
24011;DHT22;12217;50.792;4.372;2023-05-07T03:27:05;18.00;99.90
24011;DHT22;12217;50.792;4.372;2023-05-07T03:29:31;18.00;99.90
24011;DHT22;12217;50.792;4.372;2023-05-07T03:31:57;18.00;99.90
24011;DHT22;12217;50.792;4.372;2023-05-07T03:34:22;18.00;99.90
24011;DHT22;12217;50.792;4.372;2023-05-07T03:36:49;18.00;99.90
24011;DHT22;12217;50.792;4.372;2023-05-07T03:39:14;18.00;99.90
24011;DHT22;12217;50.792;4.372;2023-05-07T03:41:40;18.00;99.90
24011;DHT22;12217;50.792;4.372;2023-05-07T03:44:06;18.00;99.90
24011;DHT22;12217;50.792;4.372;2023-05-07T03:46:33;18.00;99.90
24011;DHT22;12217;50.792;4.372;2023-05-07T03:48:58;18.00;99.90
24011;DHT22;12217;50.792;4.372;2023-05-07T03:51:24;18.10;99.90
24011;DHT22;12217;50.792;4.372;2023-05-07T03:53:51;18.10;99.90
24011;DHT22;12217;50.792;4.372;2023-05-07T03:56:18;18.10;99.90
24011;DHT22;12217;50.792;4.372;2023-05-07T03:58:44;18.10;99.90
24011;DHT22;12217;50.792;4.372;2023-05-07T04:01:10;18.10;99.90
24011;DHT22;12217;50.792;4.372;2023-05-07T04:03:36;18.10;99.90
24011;DHT22;12217;50.792;4.372;2023-05-07T04:06:02;18.10;99.90
24011;DHT22;12217;50.792;4.372;2023-05-07T04:08:28;18.00;99.90
24011;DHT22;12217;50.792;4.372;2023-05-07T04:10:57;18.00;99.90
24011;DHT22;12217;50.792;4.372;2023-05-07T04:13:23;18.00;99.90
24011;DHT22;12217;50.792;4.372;2023-05-07T04:15:48;18.00;99.90
24011;DHT22;12217;50.792;4.372;2023-05-07T04:18:15;18.10;99.90
24011;DHT22;12217;50.792;4.372;2023-05-07T04:20:41;18.10;99.90
24011;DHT22;12217;50.792;4.372;2023-05-07T04:23:07;18.10;99.90
24011;DHT22;12217;50.792;4.372;2023-05-07T04:25:33;18.00;99.90
24011;DHT22;12217;50.792;4.372;2023-05-07T04:27:58;17.90;99.90
24011;DHT22;12217;50.792;4.372;2023-05-07T04:30:24;18.00;99.90
24011;DHT22;12217;50.792;4.372;2023-05-07T04:32:50;18.00;99.90
24011;DHT22;12217;50.792;4.372;2023-05-07T04:35:16;18.00;99.90
24011;DHT22;12217;50.792;4.372;2023-05-07T04:37:42;17.90;99.90
24011;DHT22;12217;50.792;4.372;2023-05-07T04:40:07;17.90;99.90
24011;DHT22;12217;50.792;4.372;2023-05-07T04:42:33;18.00;99.90
24011;DHT22;12217;50.792;4.372;2023-05-07T04:44:59;18.00;99.90
24011;DHT22;12217;50.792;4.372;2023-05-07T04:47:25;18.00;99.90
24011;DHT22;12217;50.792;4.372;2023-05-07T04:49:51;18.00;99.90
24011;DHT22;12217;50.792;4.372;2023-05-07T04:52:16;18.00;99.90
24011;DHT22;12217;50.792;4.372;2023-05-07T04:54:42;18.00;99.90
24011;DHT22;12217;50.792;4.372;2023-05-07T04:57:07;18.00;99.90
24011;DHT22;12217;50.792;4.372;2023-05-07T04:59:33;18.00;99.90
24011;DHT22;12217;50.792;4.372;2023-05-07T05:01:59;18.00;99.90
24011;DHT22;12217;50.792;4.372;2023-05-07T05:04:24;18.00;99.90
24011;DHT22;12217;50.792;4.372;2023-05-07T05:06:51;18.10;99.90
24011;DHT22;12217;50.792;4.372;2023-05-07T05:09:16;18.10;99.90
24011;DHT22;12217;50.792;4.372;2023-05-07T05:11:42;18.00;99.90
24011;DHT22;12217;50.792;4.372;2023-05-07T05:14:08;18.10;99.90
24011;DHT22;12217;50.792;4.372;2023-05-07T05:16:34;18.00;99.90
24011;DHT22;12217;50.792;4.372;2023-05-07T05:19:00;18.00;99.90
24011;DHT22;12217;50.792;4.372;2023-05-07T05:21:26;18.00;99.90
24011;DHT22;12217;50.792;4.372;2023-05-07T05:23:52;18.00;99.90
24011;DHT22;12217;50.792;4.372;2023-05-07T05:26:17;18.10;99.90
24011;DHT22;12217;50.792;4.372;2023-05-07T05:28:43;18.20;99.90
24011;DHT22;12217;50.792;4.372;2023-05-07T05:31:10;18.10;99.90
24011;DHT22;12217;50.792;4.372;2023-05-07T05:33:35;18.20;99.90
24011;DHT22;12217;50.792;4.372;2023-05-07T05:36:01;18.20;99.90
24011;DHT22;12217;50.792;4.372;2023-05-07T05:38:27;18.20;99.90
24011;DHT22;12217;50.792;4.372;2023-05-07T05:40:52;18.10;99.90
24011;DHT22;12217;50.792;4.372;2023-05-07T05:43:18;18.20;99.90
24011;DHT22;12217;50.792;4.372;2023-05-07T05:45:44;18.20;99.90
24011;DHT22;12217;50.792;4.372;2023-05-07T05:48:09;18.30;99.90
24011;DHT22;12217;50.792;4.372;2023-05-07T05:50:35;18.40;99.90
24011;DHT22;12217;50.792;4.372;2023-05-07T05:53:02;18.10;99.90
24011;DHT22;12217;50.792;4.372;2023-05-07T05:55:28;18.00;99.90
24011;DHT22;12217;50.792;4.372;2023-05-07T05:57:53;17.90;99.90
24011;DHT22;12217;50.792;4.372;2023-05-07T06:00:19;17.50;99.90
24011;DHT22;12217;50.792;4.372;2023-05-07T06:02:48;17.50;99.90
24011;DHT22;12217;50.792;4.372;2023-05-07T06:05:13;17.60;99.90
24011;DHT22;12217;50.792;4.372;2023-05-07T06:07:39;17.50;99.90
24011;DHT22;12217;50.792;4.372;2023-05-07T06:10:05;17.50;99.90
24011;DHT22;12217;50.792;4.372;2023-05-07T06:12:31;17.30;99.90
24011;DHT22;12217;50.792;4.372;2023-05-07T06:14:57;17.30;99.90
24011;DHT22;12217;50.792;4.372;2023-05-07T06:17:22;17.10;99.90
24011;DHT22;12217;50.792;4.372;2023-05-07T06:19:48;17.00;99.90
24011;DHT22;12217;50.792;4.372;2023-05-07T06:22:14;17.20;99.90
24011;DHT22;12217;50.792;4.372;2023-05-07T06:24:39;17.50;99.90
24011;DHT22;12217;50.792;4.372;2023-05-07T06:27:05;17.70;99.90
24011;DHT22;12217;50.792;4.372;2023-05-07T06:29:31;17.70;99.90
24011;DHT22;12217;50.792;4.372;2023-05-07T06:32:06;17.70;99.90
24011;DHT22;12217;50.792;4.372;2023-05-07T06:34:33;17.60;99.90
24011;DHT22;12217;50.792;4.372;2023-05-07T06:36:58;17.40;99.90
24011;DHT22;12217;50.792;4.372;2023-05-07T06:39:24;17.30;99.90
24011;DHT22;12217;50.792;4.372;2023-05-07T06:41:50;17.40;99.90
24011;DHT22;12217;50.792;4.372;2023-05-07T06:44:15;17.40;99.90
24011;DHT22;12217;50.792;4.372;2023-05-07T06:46:41;17.40;99.90
24011;DHT22;12217;50.792;4.372;2023-05-07T06:49:07;17.50;99.90
24011;DHT22;12217;50.792;4.372;2023-05-07T06:51:33;17.40;99.90
24011;DHT22;12217;50.792;4.372;2023-05-07T06:54:00;17.30;99.90
24011;DHT22;12217;50.792;4.372;2023-05-07T06:56:25;17.40;99.90
24011;DHT22;12217;50.792;4.372;2023-05-07T06:58:51;17.50;99.90
24011;DHT22;12217;50.792;4.372;2023-05-07T07:01:17;17.40;99.90
24011;DHT22;12217;50.792;4.372;2023-05-07T07:03:42;17.60;99.90
24011;DHT22;12217;50.792;4.372;2023-05-07T07:06:08;17.70;99.90
24011;DHT22;12217;50.792;4.372;2023-05-07T07:08:34;17.90;99.90
24011;DHT22;12217;50.792;4.372;2023-05-07T07:11:00;17.80;99.90
24011;DHT22;12217;50.792;4.372;2023-05-07T07:13:25;17.70;99.90
24011;DHT22;12217;50.792;4.372;2023-05-07T07:15:52;17.80;99.90
24011;DHT22;12217;50.792;4.372;2023-05-07T07:18:18;17.50;99.90
24011;DHT22;12217;50.792;4.372;2023-05-07T07:20:44;17.50;99.90
24011;DHT22;12217;50.792;4.372;2023-05-07T07:23:10;17.50;99.90
24011;DHT22;12217;50.792;4.372;2023-05-07T07:25:35;17.50;99.90
24011;DHT22;12217;50.792;4.372;2023-05-07T07:28:01;17.60;99.90
24011;DHT22;12217;50.792;4.372;2023-05-07T07:30:27;17.50;99.90
24011;DHT22;12217;50.792;4.372;2023-05-07T07:32:53;17.60;99.90
24011;DHT22;12217;50.792;4.372;2023-05-07T07:35:18;17.70;99.90
24011;DHT22;12217;50.792;4.372;2023-05-07T07:37:44;17.60;99.90
24011;DHT22;12217;50.792;4.372;2023-05-07T07:40:11;17.70;99.90
24011;DHT22;12217;50.792;4.372;2023-05-07T07:42:37;17.80;99.90
24011;DHT22;12217;50.792;4.372;2023-05-07T07:45:03;17.80;99.90
24011;DHT22;12217;50.792;4.372;2023-05-07T07:47:29;17.70;99.90
24011;DHT22;12217;50.792;4.372;2023-05-07T07:49:55;17.50;99.90
24011;DHT22;12217;50.792;4.372;2023-05-07T07:52:20;17.60;99.90
24011;DHT22;12217;50.792;4.372;2023-05-07T07:54:46;17.70;99.90
24011;DHT22;12217;50.792;4.372;2023-05-07T07:57:12;17.80;99.90
24011;DHT22;12217;50.792;4.372;2023-05-07T07:59:37;17.80;99.90
24011;DHT22;12217;50.792;4.372;2023-05-07T08:02:03;17.80;99.90
24011;DHT22;12217;50.792;4.372;2023-05-07T08:04:29;17.80;99.90
24011;DHT22;12217;50.792;4.372;2023-05-07T08:06:55;17.90;99.90
24011;DHT22;12217;50.792;4.372;2023-05-07T08:09:21;18.00;99.90
24011;DHT22;12217;50.792;4.372;2023-05-07T08:11:47;18.20;99.90
24011;DHT22;12217;50.792;4.372;2023-05-07T08:14:12;18.30;99.90
24011;DHT22;12217;50.792;4.372;2023-05-07T08:16:41;18.30;99.90
24011;DHT22;12217;50.792;4.372;2023-05-07T08:19:07;18.30;99.90
24011;DHT22;12217;50.792;4.372;2023-05-07T08:21:32;18.30;99.90
24011;DHT22;12217;50.792;4.372;2023-05-07T08:23:58;18.20;99.90
24011;DHT22;12217;50.792;4.372;2023-05-07T08:26:25;18.10;99.90
24011;DHT22;12217;50.792;4.372;2023-05-07T08:28:52;18.10;99.90
24011;DHT22;12217;50.792;4.372;2023-05-07T08:31:18;18.10;99.90
24011;DHT22;12217;50.792;4.372;2023-05-07T08:33:43;18.20;99.90
24011;DHT22;12217;50.792;4.372;2023-05-07T08:36:09;18.10;99.90
24011;DHT22;12217;50.792;4.372;2023-05-07T08:38:35;18.20;99.90
24011;DHT22;12217;50.792;4.372;2023-05-07T08:41:03;18.30;99.90
24011;DHT22;12217;50.792;4.372;2023-05-07T08:43:29;18.30;99.90
24011;DHT22;12217;50.792;4.372;2023-05-07T08:45:58;18.40;99.90
24011;DHT22;12217;50.792;4.372;2023-05-07T08:48:27;18.40;99.90
24011;DHT22;12217;50.792;4.372;2023-05-07T08:50:55;18.50;99.90
24011;DHT22;12217;50.792;4.372;2023-05-07T08:53:20;18.50;99.90
24011;DHT22;12217;50.792;4.372;2023-05-07T08:55:47;18.60;99.90
24011;DHT22;12217;50.792;4.372;2023-05-07T08:58:12;18.40;99.90
24011;DHT22;12217;50.792;4.372;2023-05-07T09:00:41;18.40;99.90
24011;DHT22;12217;50.792;4.372;2023-05-07T09:03:12;18.40;99.90
24011;DHT22;12217;50.792;4.372;2023-05-07T09:05:38;18.40;99.90
24011;DHT22;12217;50.792;4.372;2023-05-07T09:08:06;18.60;99.90
24011;DHT22;12217;50.792;4.372;2023-05-07T09:10:33;18.70;99.90
24011;DHT22;12217;50.792;4.372;2023-05-07T09:13:01;18.70;99.90
24011;DHT22;12217;50.792;4.372;2023-05-07T09:15:28;18.80;99.90
24011;DHT22;12217;50.792;4.372;2023-05-07T09:17:53;18.90;99.90
24011;DHT22;12217;50.792;4.372;2023-05-07T09:20:19;19.00;99.90
24011;DHT22;12217;50.792;4.372;2023-05-07T09:22:45;19.10;99.90
24011;DHT22;12217;50.792;4.372;2023-05-07T09:25:11;19.20;99.90
24011;DHT22;12217;50.792;4.372;2023-05-07T09:27:37;19.00;99.90
24011;DHT22;12217;50.792;4.372;2023-05-07T09:30:06;19.10;99.90
24011;DHT22;12217;50.792;4.372;2023-05-07T09:32:36;19.10;99.90
24011;DHT22;12217;50.792;4.372;2023-05-07T09:35:03;19.10;99.90
24011;DHT22;12217;50.792;4.372;2023-05-07T09:37:31;19.10;99.90
24011;DHT22;12217;50.792;4.372;2023-05-07T09:39:58;19.10;99.90
24011;DHT22;12217;50.792;4.372;2023-05-07T09:42:24;19.20;99.90
24011;DHT22;12217;50.792;4.372;2023-05-07T09:44:54;19.20;99.90
24011;DHT22;12217;50.792;4.372;2023-05-07T09:47:20;19.30;99.90
24011;DHT22;12217;50.792;4.372;2023-05-07T09:49:48;19.30;99.90
24011;DHT22;12217;50.792;4.372;2023-05-07T09:52:16;19.30;99.90
24011;DHT22;12217;50.792;4.372;2023-05-07T09:54:43;19.40;99.90
24011;DHT22;12217;50.792;4.372;2023-05-07T09:57:10;19.40;99.90
24011;DHT22;12217;50.792;4.372;2023-05-07T09:59:38;19.20;99.90
24011;DHT22;12217;50.792;4.372;2023-05-07T10:02:04;19.10;99.90
24011;DHT22;12217;50.792;4.372;2023-05-07T10:04:31;19.10;99.90
24011;DHT22;12217;50.792;4.372;2023-05-07T10:06:58;19.10;99.90
24011;DHT22;12217;50.792;4.372;2023-05-07T10:09:25;19.10;99.90
24011;DHT22;12217;50.792;4.372;2023-05-07T10:11:52;19.10;99.90
24011;DHT22;12217;50.792;4.372;2023-05-07T10:14:20;19.10;99.90
24011;DHT22;12217;50.792;4.372;2023-05-07T10:16:47;19.10;99.90
24011;DHT22;12217;50.792;4.372;2023-05-07T10:19:14;19.30;99.90
24011;DHT22;12217;50.792;4.372;2023-05-07T10:21:48;19.20;99.90
24011;DHT22;12217;50.792;4.372;2023-05-07T10:24:22;19.20;99.90
24011;DHT22;12217;50.792;4.372;2023-05-07T10:26:51;19.30;99.90
24011;DHT22;12217;50.792;4.372;2023-05-07T10:34:43;19.00;99.90
24011;DHT22;12217;50.792;4.372;2023-05-07T10:37:11;18.90;99.90
24011;DHT22;12217;50.792;4.372;2023-05-07T10:39:37;18.80;99.90
24011;DHT22;12217;50.792;4.372;2023-05-07T10:42:10;19.00;99.90
24011;DHT22;12217;50.792;4.372;2023-05-07T10:44:37;19.10;99.90
24011;DHT22;12217;50.792;4.372;2023-05-07T10:47:08;19.10;99.90
24011;DHT22;12217;50.792;4.372;2023-05-07T10:50:19;19.10;99.90
24011;DHT22;12217;50.792;4.372;2023-05-07T10:52:23;19.30;99.90
24011;DHT22;12217;50.792;4.372;2023-05-07T10:57:42;19.10;99.90
24011;DHT22;12217;50.792;4.372;2023-05-07T11:05:31;19.40;99.90
24011;DHT22;12217;50.792;4.372;2023-05-07T11:08:01;19.60;99.90
24011;DHT22;12217;50.792;4.372;2023-05-07T11:10:49;19.70;99.90
24011;DHT22;12217;50.792;4.372;2023-05-07T11:13:15;19.70;99.90
24011;DHT22;12217;50.792;4.372;2023-05-07T11:15:46;19.50;99.90
24011;DHT22;12217;50.792;4.372;2023-05-07T11:18:16;19.60;99.90
24011;DHT22;12217;50.792;4.372;2023-05-07T11:20:58;19.70;99.90
24011;DHT22;12217;50.792;4.372;2023-05-07T11:26:09;19.90;99.90
24011;DHT22;12217;50.792;4.372;2023-05-07T11:28:43;19.70;99.90
24011;DHT22;12217;50.792;4.372;2023-05-07T11:31:10;19.70;99.90
24011;DHT22;12217;50.792;4.372;2023-05-07T11:33:37;19.70;99.90
24011;DHT22;12217;50.792;4.372;2023-05-07T11:36:03;19.60;99.90
24011;DHT22;12217;50.792;4.372;2023-05-07T11:38:36;19.70;99.90
24011;DHT22;12217;50.792;4.372;2023-05-07T11:41:03;19.60;99.90
24011;DHT22;12217;50.792;4.372;2023-05-07T11:43:31;19.50;99.90
24011;DHT22;12217;50.792;4.372;2023-05-07T11:46:06;19.60;99.90
24011;DHT22;12217;50.792;4.372;2023-05-07T11:48:32;19.40;99.90
24011;DHT22;12217;50.792;4.372;2023-05-07T11:53:33;19.60;99.90
24011;DHT22;12217;50.792;4.372;2023-05-07T11:56:00;19.50;99.90
24011;DHT22;12217;50.792;4.372;2023-05-07T11:58:26;19.60;99.90
24011;DHT22;12217;50.792;4.372;2023-05-07T12:00:53;19.70;99.90
24011;DHT22;12217;50.792;4.372;2023-05-07T12:03:19;19.90;99.90
24011;DHT22;12217;50.792;4.372;2023-05-07T12:05:45;20.10;99.90
24011;DHT22;12217;50.792;4.372;2023-05-07T12:08:17;20.10;99.90
24011;DHT22;12217;50.792;4.372;2023-05-07T12:10:44;20.00;99.90
24011;DHT22;12217;50.792;4.372;2023-05-07T12:13:18;20.10;99.90
24011;DHT22;12217;50.792;4.372;2023-05-07T12:15:44;20.10;99.90
24011;DHT22;12217;50.792;4.372;2023-05-07T12:18:11;20.20;99.90
24011;DHT22;12217;50.792;4.372;2023-05-07T12:20:37;20.20;99.90
24011;DHT22;12217;50.792;4.372;2023-05-07T12:23:03;20.20;99.90
24011;DHT22;12217;50.792;4.372;2023-05-07T12:25:36;20.00;99.90
24011;DHT22;12217;50.792;4.372;2023-05-07T12:28:02;20.00;99.90
24011;DHT22;12217;50.792;4.372;2023-05-07T12:30:31;19.90;99.90
24011;DHT22;12217;50.792;4.372;2023-05-07T12:32:57;20.00;99.90
24011;DHT22;12217;50.792;4.372;2023-05-07T12:35:27;19.80;99.90
24011;DHT22;12217;50.792;4.372;2023-05-07T12:37:57;20.00;99.90
24011;DHT22;12217;50.792;4.372;2023-05-07T12:40:33;20.10;99.90
24011;DHT22;12217;50.792;4.372;2023-05-07T12:43:00;20.20;99.90
24011;DHT22;12217;50.792;4.372;2023-05-07T12:45:26;20.10;99.90
24011;DHT22;12217;50.792;4.372;2023-05-07T12:47:52;20.30;99.90
24011;DHT22;12217;50.792;4.372;2023-05-07T12:50:18;20.40;99.90
24011;DHT22;12217;50.792;4.372;2023-05-07T12:52:53;20.60;99.90
24011;DHT22;12217;50.792;4.372;2023-05-07T12:55:19;20.50;99.90
24011;DHT22;12217;50.792;4.372;2023-05-07T12:57:49;20.60;99.90
24011;DHT22;12217;50.792;4.372;2023-05-07T13:00:16;20.70;99.90
24011;DHT22;12217;50.792;4.372;2023-05-07T13:02:43;20.70;99.90
24011;DHT22;12217;50.792;4.372;2023-05-07T13:05:11;20.70;99.90
24011;DHT22;12217;50.792;4.372;2023-05-07T13:07:37;20.60;99.90
24011;DHT22;12217;50.792;4.372;2023-05-07T13:10:04;20.60;99.90
24011;DHT22;12217;50.792;4.372;2023-05-07T13:12:29;20.60;99.90
24011;DHT22;12217;50.792;4.372;2023-05-07T13:14:55;20.30;99.90
24011;DHT22;12217;50.792;4.372;2023-05-07T13:17:21;20.10;99.90
24011;DHT22;12217;50.792;4.372;2023-05-07T13:19:46;20.20;99.90
24011;DHT22;12217;50.792;4.372;2023-05-07T13:22:12;20.30;99.90
24011;DHT22;12217;50.792;4.372;2023-05-07T13:24:37;20.50;99.90
24011;DHT22;12217;50.792;4.372;2023-05-07T13:27:03;20.50;99.90
24011;DHT22;12217;50.792;4.372;2023-05-07T13:29:29;20.40;99.90
24011;DHT22;12217;50.792;4.372;2023-05-07T13:31:59;20.50;99.90
24011;DHT22;12217;50.792;4.372;2023-05-07T13:34:25;20.30;99.90
24011;DHT22;12217;50.792;4.372;2023-05-07T13:36:51;20.00;99.90
24011;DHT22;12217;50.792;4.372;2023-05-07T13:39:17;20.00;99.90
24011;DHT22;12217;50.792;4.372;2023-05-07T13:41:42;20.10;99.90
24011;DHT22;12217;50.792;4.372;2023-05-07T13:44:08;20.00;99.90
24011;DHT22;12217;50.792;4.372;2023-05-07T13:46:33;19.90;99.90
24011;DHT22;12217;50.792;4.372;2023-05-07T13:48:59;19.90;99.90
24011;DHT22;12217;50.792;4.372;2023-05-07T13:51:25;19.90;99.90
24011;DHT22;12217;50.792;4.372;2023-05-07T13:53:51;19.60;99.90
24011;DHT22;12217;50.792;4.372;2023-05-07T13:56:17;19.70;99.90
24011;DHT22;12217;50.792;4.372;2023-05-07T13:58:43;19.90;99.90
24011;DHT22;12217;50.792;4.372;2023-05-07T14:01:09;20.10;99.90
24011;DHT22;12217;50.792;4.372;2023-05-07T14:03:34;20.30;99.90
24011;DHT22;12217;50.792;4.372;2023-05-07T14:06:03;20.30;99.90
24011;DHT22;12217;50.792;4.372;2023-05-07T14:08:29;20.50;99.90
24011;DHT22;12217;50.792;4.372;2023-05-07T14:10:55;20.50;99.90
24011;DHT22;12217;50.792;4.372;2023-05-07T14:13:20;20.50;99.90
24011;DHT22;12217;50.792;4.372;2023-05-07T14:15:46;20.30;99.90
24011;DHT22;12217;50.792;4.372;2023-05-07T14:18:14;20.20;99.90
24011;DHT22;12217;50.792;4.372;2023-05-07T14:20:40;20.20;99.90
24011;DHT22;12217;50.792;4.372;2023-05-07T14:23:05;20.20;99.90
24011;DHT22;12217;50.792;4.372;2023-05-07T14:25:31;20.30;99.90
24011;DHT22;12217;50.792;4.372;2023-05-07T14:27:57;20.50;99.90
24011;DHT22;12217;50.792;4.372;2023-05-07T14:30:23;20.20;99.90
24011;DHT22;12217;50.792;4.372;2023-05-07T14:32:50;20.30;99.90
24011;DHT22;12217;50.792;4.372;2023-05-07T14:35:16;20.40;99.90
24011;DHT22;12217;50.792;4.372;2023-05-07T14:37:42;20.40;99.90
24011;DHT22;12217;50.792;4.372;2023-05-07T14:40:08;20.20;99.90
24011;DHT22;12217;50.792;4.372;2023-05-07T14:42:34;20.20;99.90
24011;DHT22;12217;50.792;4.372;2023-05-07T14:45:00;20.20;99.90
24011;DHT22;12217;50.792;4.372;2023-05-07T14:47:25;20.10;99.90
24011;DHT22;12217;50.792;4.372;2023-05-07T14:49:51;19.90;99.90
24011;DHT22;12217;50.792;4.372;2023-05-07T14:52:18;20.20;99.90
24011;DHT22;12217;50.792;4.372;2023-05-07T14:54:44;20.20;99.90
24011;DHT22;12217;50.792;4.372;2023-05-07T14:57:11;20.30;99.90
24011;DHT22;12217;50.792;4.372;2023-05-07T14:59:41;20.30;99.90
24011;DHT22;12217;50.792;4.372;2023-05-07T15:02:08;20.30;99.90
24011;DHT22;12217;50.792;4.372;2023-05-07T15:04:34;20.40;99.90
24011;DHT22;12217;50.792;4.372;2023-05-07T15:07:00;20.50;99.90
24011;DHT22;12217;50.792;4.372;2023-05-07T15:09:26;20.40;99.90
24011;DHT22;12217;50.792;4.372;2023-05-07T15:11:51;20.60;99.90
24011;DHT22;12217;50.792;4.372;2023-05-07T15:14:17;20.60;99.90
24011;DHT22;12217;50.792;4.372;2023-05-07T15:16:43;20.50;99.90
24011;DHT22;12217;50.792;4.372;2023-05-07T15:19:09;20.60;99.90
24011;DHT22;12217;50.792;4.372;2023-05-07T15:21:34;20.50;99.90
24011;DHT22;12217;50.792;4.372;2023-05-07T15:24:02;20.40;99.90
24011;DHT22;12217;50.792;4.372;2023-05-07T15:26:27;20.30;99.90
24011;DHT22;12217;50.792;4.372;2023-05-07T15:28:53;20.30;99.90
24011;DHT22;12217;50.792;4.372;2023-05-07T15:31:21;20.20;99.90
24011;DHT22;12217;50.792;4.372;2023-05-07T15:33:48;20.10;99.90
24011;DHT22;12217;50.792;4.372;2023-05-07T15:36:13;20.30;99.90
24011;DHT22;12217;50.792;4.372;2023-05-07T15:38:39;20.20;99.90
24011;DHT22;12217;50.792;4.372;2023-05-07T15:41:05;20.10;99.90
24011;DHT22;12217;50.792;4.372;2023-05-07T15:43:31;20.10;99.90
24011;DHT22;12217;50.792;4.372;2023-05-07T15:45:56;20.10;99.90